sensor_id;sensor_type;location;lat;lon;timestamp;pressure;altitude;pressure_sealevel;temperature
71807;BMP280;59655;42.590;23.364;2022-10-13T00:00:55;92236.22;;;11.10
71807;BMP280;59655;42.590;23.364;2022-10-13T00:03:21;92232.44;;;11.05
71807;BMP280;59655;42.590;23.364;2022-10-13T00:05:48;92235.03;;;10.97
71807;BMP280;59655;42.590;23.364;2022-10-13T00:08:17;92237.53;;;11.03
71807;BMP280;59655;42.590;23.364;2022-10-13T00:10:45;92234.28;;;11.10
71807;BMP280;59655;42.590;23.364;2022-10-13T00:13:11;92229.78;;;11.05
71807;BMP280;59655;42.590;23.364;2022-10-13T00:15:38;92228.38;;;11.04
71807;BMP280;59655;42.590;23.364;2022-10-13T00:18:04;92237.53;;;11.03
71807;BMP280;59655;42.590;23.364;2022-10-13T00:20:29;92232.66;;;11.07
71807;BMP280;59655;42.590;23.364;2022-10-13T00:22:55;92229.59;;;11.03
71807;BMP280;59655;42.590;23.364;2022-10-13T00:25:20;92219.59;;;11.09
71807;BMP280;59655;42.590;23.364;2022-10-13T00:27:45;92217.25;;;11.06
71807;BMP280;59655;42.590;23.364;2022-10-13T00:30:11;92216.88;;;11.02
71807;BMP280;59655;42.590;23.364;2022-10-13T00:32:36;92217.56;;;11.02
71807;BMP280;59655;42.590;23.364;2022-10-13T00:35:02;92219.38;;;11.07
71807;BMP280;59655;42.590;23.364;2022-10-13T00:37:27;92217.94;;;11.06
71807;BMP280;59655;42.590;23.364;2022-10-13T00:39:53;92210.19;;;11.08
71807;BMP280;59655;42.590;23.364;2022-10-13T00:42:18;92207.75;;;10.97
71807;BMP280;59655;42.590;23.364;2022-10-13T00:45:05;92205.81;;;10.97
71807;BMP280;59655;42.590;23.364;2022-10-13T00:47:41;92204.81;;;11.01
71807;BMP280;59655;42.590;23.364;2022-10-13T00:50:28;92194.47;;;10.97
71807;BMP280;59655;42.590;23.364;2022-10-13T00:52:56;92195.72;;;10.96
71807;BMP280;59655;42.590;23.364;2022-10-13T00:55:25;92191.47;;;10.93
71807;BMP280;59655;42.590;23.364;2022-10-13T00:57:52;92189.81;;;10.90
71807;BMP280;59655;42.590;23.364;2022-10-13T01:00:23;92189.69;;;10.95
71807;BMP280;59655;42.590;23.364;2022-10-13T01:02:49;92191.72;;;11.03
71807;BMP280;59655;42.590;23.364;2022-10-13T01:05:15;92193.28;;;10.98
71807;BMP280;59655;42.590;23.364;2022-10-13T01:07:42;92196.63;;;10.99
71807;BMP280;59655;42.590;23.364;2022-10-13T01:10:09;92192.53;;;10.97
71807;BMP280;59655;42.590;23.364;2022-10-13T01:12:45;92186.84;;;10.93
71807;BMP280;59655;42.590;23.364;2022-10-13T01:15:25;92193.06;;;10.96
71807;BMP280;59655;42.590;23.364;2022-10-13T01:20:47;92195.19;;;10.97
71807;BMP280;59655;42.590;23.364;2022-10-13T01:29:11;92189.91;;;10.77
71807;BMP280;59655;42.590;23.364;2022-10-13T01:36:55;92189.72;;;10.74
71807;BMP280;59655;42.590;23.364;2022-10-13T01:40:27;92198.38;;;10.75
71807;BMP280;59655;42.590;23.364;2022-10-13T01:42:39;92208.06;;;10.72
71807;BMP280;59655;42.590;23.364;2022-10-13T01:45:09;92199.31;;;10.64
71807;BMP280;59655;42.590;23.364;2022-10-13T01:47:36;92196.78;;;10.59
71807;BMP280;59655;42.590;23.364;2022-10-13T01:50:03;92199.94;;;10.57
71807;BMP280;59655;42.590;23.364;2022-10-13T01:52:33;92191.06;;;10.54
71807;BMP280;59655;42.590;23.364;2022-10-13T01:55:05;92192.44;;;10.48
71807;BMP280;59655;42.590;23.364;2022-10-13T02:00:00;92196.72;;;10.51
71807;BMP280;59655;42.590;23.364;2022-10-13T02:02:42;92193.16;;;10.48
71807;BMP280;59655;42.590;23.364;2022-10-13T02:07:57;92182.88;;;10.45
71807;BMP280;59655;42.590;23.364;2022-10-13T02:13:04;92169.84;;;10.54
71807;BMP280;59655;42.590;23.364;2022-10-13T02:15:35;92176.72;;;10.50
71807;BMP280;59655;42.590;23.364;2022-10-13T02:18:03;92181.91;;;10.56
71807;BMP280;59655;42.590;23.364;2022-10-13T02:20:29;92179.38;;;10.50
71807;BMP280;59655;42.590;23.364;2022-10-13T02:23:00;92169.84;;;10.54
71807;BMP280;59655;42.590;23.364;2022-10-13T02:25:27;92172.56;;;10.41
71807;BMP280;59655;42.590;23.364;2022-10-13T02:27:54;92171.75;;;10.33
71807;BMP280;59655;42.590;23.364;2022-10-13T02:30:24;92166.66;;;10.35
71807;BMP280;59655;42.590;23.364;2022-10-13T02:32:50;92166.16;;;10.37
71807;BMP280;59655;42.590;23.364;2022-10-13T02:35:15;92151.31;;;10.41
71807;BMP280;59655;42.590;23.364;2022-10-13T02:37:41;92159.28;;;10.41
71807;BMP280;59655;42.590;23.364;2022-10-13T02:40:07;92160.53;;;10.40
71807;BMP280;59655;42.590;23.364;2022-10-13T02:42:32;92162.06;;;10.36
71807;BMP280;59655;42.590;23.364;2022-10-13T02:44:57;92165.63;;;10.38
71807;BMP280;59655;42.590;23.364;2022-10-13T02:47:23;92164.00;;;10.35
71807;BMP280;59655;42.590;23.364;2022-10-13T02:49:48;92165.63;;;10.38
71807;BMP280;59655;42.590;23.364;2022-10-13T02:52:13;92166.03;;;10.42
71807;BMP280;59655;42.590;23.364;2022-10-13T02:54:39;92154.91;;;10.44
71807;BMP280;59655;42.590;23.364;2022-10-13T02:57:04;92154.63;;;10.34
71807;BMP280;59655;42.590;23.364;2022-10-13T02:59:29;92158.00;;;10.35
71807;BMP280;59655;42.590;23.364;2022-10-13T03:01:55;92144.53;;;10.32
71807;BMP280;59655;42.590;23.364;2022-10-13T03:04:21;92149.97;;;10.27
71807;BMP280;59655;42.590;23.364;2022-10-13T03:06:46;92138.50;;;10.32
71807;BMP280;59655;42.590;23.364;2022-10-13T03:09:11;92141.38;;;10.34
71807;BMP280;59655;42.590;23.364;2022-10-13T03:11:37;92146.25;;;10.30
71807;BMP280;59655;42.590;23.364;2022-10-13T03:14:02;92146.97;;;10.30
71807;BMP280;59655;42.590;23.364;2022-10-13T03:16:27;92148.00;;;10.27
71807;BMP280;59655;42.590;23.364;2022-10-13T03:18:53;92142.72;;;10.14
71807;BMP280;59655;42.590;23.364;2022-10-13T03:21:18;92142.72;;;10.14
71807;BMP280;59655;42.590;23.364;2022-10-13T03:23:44;92142.94;;;10.16
71807;BMP280;59655;42.590;23.364;2022-10-13T03:26:09;92146.69;;;10.21
71807;BMP280;59655;42.590;23.364;2022-10-13T03:28:35;92151.16;;;10.26
71807;BMP280;59655;42.590;23.364;2022-10-13T03:31:02;92152.91;;;10.23
71807;BMP280;59655;42.590;23.364;2022-10-13T03:33:27;92157.72;;;10.25
71807;BMP280;59655;42.590;23.364;2022-10-13T03:35:53;92156.97;;;10.24
71807;BMP280;59655;42.590;23.364;2022-10-13T03:38:18;92151.56;;;10.30
71807;BMP280;59655;42.590;23.364;2022-10-13T03:40:43;92155.84;;;10.33
71807;BMP280;59655;42.590;23.364;2022-10-13T03:43:09;92155.66;;;10.31
71807;BMP280;59655;42.590;23.364;2022-10-13T03:45:34;92151.91;;;10.26
71807;BMP280;59655;42.590;23.364;2022-10-13T03:47:59;92148.19;;;10.29
71807;BMP280;59655;42.590;23.364;2022-10-13T03:50:25;92153.50;;;10.29
71807;BMP280;59655;42.590;23.364;2022-10-13T03:52:50;92152.63;;;10.27
71807;BMP280;59655;42.590;23.364;2022-10-13T03:55:16;92147.81;;;10.25
71807;BMP280;59655;42.590;23.364;2022-10-13T03:57:41;92148.72;;;10.28
71807;BMP280;59655;42.590;23.364;2022-10-13T04:00:07;92146.97;;;10.30
71807;BMP280;59655;42.590;23.364;2022-10-13T04:02:35;92137.41;;;10.27
71807;BMP280;59655;42.590;23.364;2022-10-13T04:05:00;92146.59;;;10.26
71807;BMP280;59655;42.590;23.364;2022-10-13T04:07:25;92144.53;;;10.32
71807;BMP280;59655;42.590;23.364;2022-10-13T04:09:51;92144.84;;;10.29
71807;BMP280;59655;42.590;23.364;2022-10-13T04:12:16;92149.47;;;10.28
71807;BMP280;59655;42.590;23.364;2022-10-13T04:14:42;92134.22;;;10.29
71807;BMP280;59655;42.590;23.364;2022-10-13T04:17:07;92138.84;;;10.28
71807;BMP280;59655;42.590;23.364;2022-10-13T04:19:32;92138.41;;;10.24
71807;BMP280;59655;42.590;23.364;2022-10-13T04:21:58;92136.00;;;10.26
71807;BMP280;59655;42.590;23.364;2022-10-13T04:24:23;92127.50;;;10.28
71807;BMP280;59655;42.590;23.364;2022-10-13T04:26:49;92144.56;;;10.19
71807;BMP280;59655;42.590;23.364;2022-10-13T04:29:14;92131.31;;;10.19
71807;BMP280;59655;42.590;23.364;2022-10-13T04:31:39;92132.03;;;10.20
71807;BMP280;59655;42.590;23.364;2022-10-13T04:34:07;92140.88;;;10.22
71807;BMP280;59655;42.590;23.364;2022-10-13T04:36:32;92129.94;;;10.26
71807;BMP280;59655;42.590;23.364;2022-10-13T04:38:57;92131.19;;;10.25
71807;BMP280;59655;42.590;23.364;2022-10-13T04:41:23;92126.59;;;10.25
71807;BMP280;59655;42.590;23.364;2022-10-13T04:43:50;92125.16;;;10.24
71807;BMP280;59655;42.590;23.364;2022-10-13T04:46:25;92115.97;;;10.25
71807;BMP280;59655;42.590;23.364;2022-10-13T04:48:51;92134.56;;;10.25
71807;BMP280;59655;42.590;23.364;2022-10-13T04:51:19;92134.03;;;10.27
71807;BMP280;59655;42.590;23.364;2022-10-13T04:53:46;92132.28;;;10.29
71807;BMP280;59655;42.590;23.364;2022-10-13T04:56:14;92133.53;;;10.28
71807;BMP280;59655;42.590;23.364;2022-10-13T04:58:41;92129.63;;;10.29
71807;BMP280;59655;42.590;23.364;2022-10-13T05:01:10;92130.34;;;10.30
71807;BMP280;59655;42.590;23.364;2022-10-13T05:03:36;92135.13;;;10.31
71807;BMP280;59655;42.590;23.364;2022-10-13T05:06:01;92135.34;;;10.34
71807;BMP280;59655;42.590;23.364;2022-10-13T05:08:27;92132.19;;;10.35
71807;BMP280;59655;42.590;23.364;2022-10-13T05:13:19;92133.25;;;10.40
71807;BMP280;59655;42.590;23.364;2022-10-13T05:15:44;92135.59;;;10.43
71807;BMP280;59655;42.590;23.364;2022-10-13T05:18:09;92137.56;;;10.43
71807;BMP280;59655;42.590;23.364;2022-10-13T05:20:35;92138.66;;;10.47
71807;BMP280;59655;42.590;23.364;2022-10-13T05:23:00;92141.53;;;10.49
71807;BMP280;59655;42.590;23.364;2022-10-13T05:25:25;92140.78;;;10.49
71807;BMP280;59655;42.590;23.364;2022-10-13T05:27:51;92146.09;;;10.49
71807;BMP280;59655;42.590;23.364;2022-10-13T05:30:16;92145.78;;;10.52
71807;BMP280;59655;42.590;23.364;2022-10-13T05:32:41;92149.31;;;10.55
71807;BMP280;59655;42.590;23.364;2022-10-13T05:35:07;92148.63;;;10.54
71807;BMP280;59655;42.590;23.364;2022-10-13T05:37:33;92157.72;;;10.59
71807;BMP280;59655;42.590;23.364;2022-10-13T05:39:58;92163.22;;;10.61
71807;BMP280;59655;42.590;23.364;2022-10-13T05:42:23;92166.38;;;10.60
71807;BMP280;59655;42.590;23.364;2022-10-13T05:44:49;92166.19;;;10.58
71807;BMP280;59655;42.590;23.364;2022-10-13T05:47:15;92168.09;;;10.57
71807;BMP280;59655;42.590;23.364;2022-10-13T05:49:40;92180.16;;;10.58
71807;BMP280;59655;42.590;23.364;2022-10-13T05:52:08;92180.16;;;10.58
71807;BMP280;59655;42.590;23.364;2022-10-13T05:57:05;92190.47;;;10.62
71807;BMP280;59655;42.590;23.364;2022-10-13T05:59:34;92190.97;;;10.60
71807;BMP280;59655;42.590;23.364;2022-10-13T06:02:02;92194.34;;;10.61
71807;BMP280;59655;42.590;23.364;2022-10-13T06:04:42;92192.59;;;10.63
71807;BMP280;59655;42.590;23.364;2022-10-13T06:07:09;92205.69;;;10.61
71807;BMP280;59655;42.590;23.364;2022-10-13T06:09:36;92188.91;;;10.66
71807;BMP280;59655;42.590;23.364;2022-10-13T06:12:04;92192.34;;;10.74
71807;BMP280;59655;42.590;23.364;2022-10-13T06:14:29;92185.81;;;10.75
71807;BMP280;59655;42.590;23.364;2022-10-13T06:16:54;92190.91;;;10.73
71807;BMP280;59655;42.590;23.364;2022-10-13T06:19:20;92191.63;;;10.74
71807;BMP280;59655;42.590;23.364;2022-10-13T06:21:45;92189.38;;;10.78
71807;BMP280;59655;42.590;23.364;2022-10-13T06:24:11;92184.81;;;10.79
71807;BMP280;59655;42.590;23.364;2022-10-13T06:26:36;92188.34;;;10.81
71807;BMP280;59655;42.590;23.364;2022-10-13T06:29:02;92186.25;;;10.87
71807;BMP280;59655;42.590;23.364;2022-10-13T06:31:27;92187.91;;;10.90
71807;BMP280;59655;42.590;23.364;2022-10-13T06:33:53;92193.06;;;10.96
71807;BMP280;59655;42.590;23.364;2022-10-13T06:36:18;92184.78;;;11.00
71807;BMP280;59655;42.590;23.364;2022-10-13T06:38:43;92181.59;;;11.01
71807;BMP280;59655;42.590;23.364;2022-10-13T06:41:09;92185.16;;;11.04
71807;BMP280;59655;42.590;23.364;2022-10-13T06:43:35;92190.88;;;11.08
71807;BMP280;59655;42.590;23.364;2022-10-13T06:46:01;92186.66;;;11.12
71807;BMP280;59655;42.590;23.364;2022-10-13T06:48:27;92179.59;;;11.15
71807;BMP280;59655;42.590;23.364;2022-10-13T06:50:52;92184.59;;;11.18
71807;BMP280;59655;42.590;23.364;2022-10-13T06:53:18;92185.50;;;11.21
71807;BMP280;59655;42.590;23.364;2022-10-13T06:55:43;92172.06;;;11.27
71807;BMP280;59655;42.590;23.364;2022-10-13T06:58:09;92178.28;;;11.29
71807;BMP280;59655;42.590;23.364;2022-10-13T07:00:35;92174.06;;;11.34
71807;BMP280;59655;42.590;23.364;2022-10-13T07:03:01;92181.19;;;11.39
71807;BMP280;59655;42.590;23.364;2022-10-13T07:05:26;92182.63;;;11.40
71807;BMP280;59655;42.590;23.364;2022-10-13T07:07:52;92185.66;;;11.44
71807;BMP280;59655;42.590;23.364;2022-10-13T07:10:19;92174.88;;;11.50
71807;BMP280;59655;42.590;23.364;2022-10-13T07:12:45;92174.34;;;11.51
71807;BMP280;59655;42.590;23.364;2022-10-13T07:15:12;92178.44;;;11.52
71807;BMP280;59655;42.590;23.364;2022-10-13T07:17:38;92169.63;;;11.57
71807;BMP280;59655;42.590;23.364;2022-10-13T07:20:04;92168.56;;;11.60
71807;BMP280;59655;42.590;23.364;2022-10-13T07:22:30;92159.56;;;11.64
71807;BMP280;59655;42.590;23.364;2022-10-13T07:24:55;92173.72;;;11.66
71807;BMP280;59655;42.590;23.364;2022-10-13T07:27:23;92172.69;;;11.69
71807;BMP280;59655;42.590;23.364;2022-10-13T07:29:49;92177.84;;;11.75
71807;BMP280;59655;42.590;23.364;2022-10-13T07:32:15;92176.81;;;11.78
71807;BMP280;59655;42.590;23.364;2022-10-13T07:34:46;92172.59;;;11.82
71807;BMP280;59655;42.590;23.364;2022-10-13T07:37:11;92175.63;;;11.87
71807;BMP280;59655;42.590;23.364;2022-10-13T07:39:38;92172.63;;;11.90
71807;BMP280;59655;42.590;23.364;2022-10-13T07:42:03;92177.03;;;11.95
71807;BMP280;59655;42.590;23.364;2022-10-13T07:44:28;92174.06;;;11.99
71807;BMP280;59655;42.590;23.364;2022-10-13T07:46:54;92173.72;;;12.02
71807;BMP280;59655;42.590;23.364;2022-10-13T07:49:20;92176.56;;;12.04
71807;BMP280;59655;42.590;23.364;2022-10-13T07:51:45;92182.09;;;12.06
71807;BMP280;59655;42.590;23.364;2022-10-13T07:54:11;92182.78;;;12.07
71807;BMP280;59655;42.590;23.364;2022-10-13T07:56:36;92172.34;;;12.09
71807;BMP280;59655;42.590;23.364;2022-10-13T07:59:02;92169.84;;;12.11
71807;BMP280;59655;42.590;23.364;2022-10-13T08:01:29;92176.09;;;12.14
71807;BMP280;59655;42.590;23.364;2022-10-13T08:03:55;92171.13;;;12.18
71807;BMP280;59655;42.590;23.364;2022-10-13T08:06:21;92169.88;;;12.19
71807;BMP280;59655;42.590;23.364;2022-10-13T08:08:46;92175.75;;;12.25
71807;BMP280;59655;42.590;23.364;2022-10-13T08:11:13;92175.75;;;12.25
71807;BMP280;59655;42.590;23.364;2022-10-13T08:13:39;92174.19;;;12.30
71807;BMP280;59655;42.590;23.364;2022-10-13T08:16:04;92175.25;;;12.34
71807;BMP280;59655;42.590;23.364;2022-10-13T08:18:30;92174.56;;;12.41
71807;BMP280;59655;42.590;23.364;2022-10-13T08:20:58;92177.41;;;12.43
71807;BMP280;59655;42.590;23.364;2022-10-13T08:23:24;92172.25;;;12.45
71807;BMP280;59655;42.590;23.364;2022-10-13T08:25:50;92174.75;;;12.51
71807;BMP280;59655;42.590;23.364;2022-10-13T08:28:33;92177.78;;;12.55
71807;BMP280;59655;42.590;23.364;2022-10-13T08:30:59;92176.19;;;12.60
71807;BMP280;59655;42.590;23.364;2022-10-13T08:33:25;92172.81;;;12.67
71807;BMP280;59655;42.590;23.364;2022-10-13T08:35:51;92173.22;;;12.71
71807;BMP280;59655;42.590;23.364;2022-10-13T08:38:17;92163.28;;;12.71
71807;BMP280;59655;42.590;23.364;2022-10-13T08:40:49;92162.75;;;12.73
71807;BMP280;59655;42.590;23.364;2022-10-13T08:43:18;92163.81;;;12.78
71807;BMP280;59655;42.590;23.364;2022-10-13T08:45:44;92162.19;;;12.82
71807;BMP280;59655;42.590;23.364;2022-10-13T08:48:18;92167.34;;;12.88
71807;BMP280;59655;42.590;23.364;2022-10-13T08:50:48;92168.97;;;12.91
71807;BMP280;59655;42.590;23.364;2022-10-13T08:53:41;92160.97;;;12.91
71807;BMP280;59655;42.590;23.364;2022-10-13T08:58:37;92159.72;;;13.00
71807;BMP280;59655;42.590;23.364;2022-10-13T09:06:20;92151.53;;;13.13
71807;BMP280;59655;42.590;23.364;2022-10-13T09:11:29;92145.84;;;13.16
71807;BMP280;59655;42.590;23.364;2022-10-13T09:13:56;92140.00;;;13.26
71807;BMP280;59655;42.590;23.364;2022-10-13T09:16:35;92145.13;;;13.31
71807;BMP280;59655;42.590;23.364;2022-10-13T09:19:16;92149.22;;;13.32
71807;BMP280;59655;42.590;23.364;2022-10-13T09:21:43;92148.13;;;13.43
71807;BMP280;59655;42.590;23.364;2022-10-13T09:24:17;92141.00;;;13.46
71807;BMP280;59655;42.590;23.364;2022-10-13T09:26:43;92142.59;;;13.49
71807;BMP280;59655;42.590;23.364;2022-10-13T09:29:15;92137.44;;;13.51
71807;BMP280;59655;42.590;23.364;2022-10-13T09:31:41;92140.09;;;13.58
71807;BMP280;59655;42.590;23.364;2022-10-13T09:37:00;92129.25;;;13.64
71807;BMP280;59655;42.590;23.364;2022-10-13T09:39:28;92119.28;;;13.65
71807;BMP280;59655;42.590;23.364;2022-10-13T09:44:42;92131.38;;;13.66
71807;BMP280;59655;42.590;23.364;2022-10-13T09:47:17;92121.56;;;13.68
71807;BMP280;59655;42.590;23.364;2022-10-13T09:49:45;92124.59;;;13.72
71807;BMP280;59655;42.590;23.364;2022-10-13T09:52:16;92124.53;;;13.80
71807;BMP280;59655;42.590;23.364;2022-10-13T09:54:55;92125.03;;;13.86
71807;BMP280;59655;42.590;23.364;2022-10-13T10:02:36;92121.09;;;14.02
71807;BMP280;59655;42.590;23.364;2022-10-13T10:05:17;92112.13;;;14.07
71807;BMP280;59655;42.590;23.364;2022-10-13T10:07:42;92118.91;;;14.09
71807;BMP280;59655;42.590;23.364;2022-10-13T10:10:34;92103.91;;;14.13
71807;BMP280;59655;42.590;23.364;2022-10-13T10:13:00;92108.72;;;14.15
71807;BMP280;59655;42.590;23.364;2022-10-13T10:15:37;92103.19;;;14.20
71807;BMP280;59655;42.590;23.364;2022-10-13T10:18:24;92105.09;;;14.27
71807;BMP280;59655;42.590;23.364;2022-10-13T10:21:25;92098.81;;;14.33
71807;BMP280;59655;42.590;23.364;2022-10-13T10:26:50;92098.22;;;14.42
71807;BMP280;59655;42.590;23.364;2022-10-13T10:32:31;92092.00;;;14.47
71807;BMP280;59655;42.590;23.364;2022-10-13T10:45:59;92075.75;;;14.53
71807;BMP280;59655;42.590;23.364;2022-10-13T10:48:35;92071.59;;;14.59
71807;BMP280;59655;42.590;23.364;2022-10-13T10:51:05;92067.28;;;14.64
71807;BMP280;59655;42.590;23.364;2022-10-13T11:04:42;92060.00;;;14.82
71807;BMP280;59655;42.590;23.364;2022-10-13T11:12:47;92049.47;;;14.84
71807;BMP280;59655;42.590;23.364;2022-10-13T11:15:21;92047.47;;;14.84
71807;BMP280;59655;42.590;23.364;2022-10-13T11:17:48;92039.25;;;14.90
71807;BMP280;59655;42.590;23.364;2022-10-13T11:25:41;92029.34;;;14.83
71807;BMP280;59655;42.590;23.364;2022-10-13T11:36:43;92021.66;;;14.87
71807;BMP280;59655;42.590;23.364;2022-10-13T11:44:55;92010.16;;;14.94
71807;BMP280;59655;42.590;23.364;2022-10-13T12:01:04;92007.88;;;14.90
71807;BMP280;59655;42.590;23.364;2022-10-13T12:03:39;92001.44;;;14.93
71807;BMP280;59655;42.590;23.364;2022-10-13T12:06:25;92001.06;;;14.97
71807;BMP280;59655;42.590;23.364;2022-10-13T12:09:00;92000.34;;;14.96
71807;BMP280;59655;42.590;23.364;2022-10-13T12:11:35;92001.06;;;14.97
71807;BMP280;59655;42.590;23.364;2022-10-13T12:14:02;91990.34;;;14.97
71807;BMP280;59655;42.590;23.364;2022-10-13T12:16:28;91990.22;;;14.95
71807;BMP280;59655;42.590;23.364;2022-10-13T12:19:14;91995.72;;;14.97
71807;BMP280;59655;42.590;23.364;2022-10-13T12:21:54;91995.41;;;14.93
71807;BMP280;59655;42.590;23.364;2022-10-13T12:24:25;91995.41;;;14.93
71807;BMP280;59655;42.590;23.364;2022-10-13T12:26:51;92000.91;;;14.95
71807;BMP280;59655;42.590;23.364;2022-10-13T12:29:20;91994.88;;;14.94
71807;BMP280;59655;42.590;23.364;2022-10-13T12:31:48;92000.03;;;14.92
71807;BMP280;59655;42.590;23.364;2022-10-13T12:36:53;91996.56;;;15.00
71807;BMP280;59655;42.590;23.364;2022-10-13T12:39:19;91992.50;;;14.99
71807;BMP280;59655;42.590;23.364;2022-10-13T12:41:46;91992.78;;;15.03
71807;BMP280;59655;42.590;23.364;2022-10-13T12:44:32;91993.13;;;15.07
71807;BMP280;59655;42.590;23.364;2022-10-13T12:46:59;91977.50;;;15.13
71807;BMP280;59655;42.590;23.364;2022-10-13T12:49:33;91980.66;;;15.19
71807;BMP280;59655;42.590;23.364;2022-10-13T12:54:33;91973.34;;;15.19
71807;BMP280;59655;42.590;23.364;2022-10-13T12:57:02;91977.84;;;15.17
71807;BMP280;59655;42.590;23.364;2022-10-13T12:59:29;91972.25;;;15.23
71807;BMP280;59655;42.590;23.364;2022-10-13T13:02:00;91973.31;;;15.37
71807;BMP280;59655;42.590;23.364;2022-10-13T13:04:41;91972.81;;;16.12
71807;BMP280;59655;42.590;23.364;2022-10-13T13:12:32;91969.50;;;16.04
71807;BMP280;59655;42.590;23.364;2022-10-13T13:15:30;91967.88;;;16.18
71807;BMP280;59655;42.590;23.364;2022-10-13T13:20:52;91967.00;;;16.06
71807;BMP280;59655;42.590;23.364;2022-10-13T13:23:17;91965.72;;;16.07
71807;BMP280;59655;42.590;23.364;2022-10-13T13:25:47;91966.28;;;16.05
71807;BMP280;59655;42.590;23.364;2022-10-13T13:28:27;91957.97;;;16.11
71807;BMP280;59655;42.590;23.364;2022-10-13T13:30:53;91965.19;;;16.18
71807;BMP280;59655;42.590;23.364;2022-10-13T13:33:18;91965.31;;;16.20
71807;BMP280;59655;42.590;23.364;2022-10-13T13:35:43;91963.34;;;16.21
71807;BMP280;59655;42.590;23.364;2022-10-13T13:38:09;91963.22;;;16.19
71807;BMP280;59655;42.590;23.364;2022-10-13T13:40:34;91957.88;;;16.19
71807;BMP280;59655;42.590;23.364;2022-10-13T13:43:00;91951.94;;;16.20
71807;BMP280;59655;42.590;23.364;2022-10-13T13:45:25;91951.13;;;16.18
71807;BMP280;59655;42.590;23.364;2022-10-13T13:47:51;91954.78;;;16.22
71807;BMP280;59655;42.590;23.364;2022-10-13T13:50:21;91952.50;;;16.19
71807;BMP280;59655;42.590;23.364;2022-10-13T13:52:47;91952.09;;;16.22
71807;BMP280;59655;42.590;23.364;2022-10-13T13:55:12;91947.00;;;16.17
71807;BMP280;59655;42.590;23.364;2022-10-13T13:57:38;91942.91;;;16.06
71807;BMP280;59655;42.590;23.364;2022-10-13T14:00:04;91949.22;;;16.01
71807;BMP280;59655;42.590;23.364;2022-10-13T14:02:30;91948.94;;;15.97
71807;BMP280;59655;42.590;23.364;2022-10-13T14:04:55;91959.91;;;15.91
71807;BMP280;59655;42.590;23.364;2022-10-13T14:07:20;91958.03;;;15.84
71807;BMP280;59655;42.590;23.364;2022-10-13T14:09:46;91950.28;;;15.78
71807;BMP280;59655;42.590;23.364;2022-10-13T14:12:11;91949.13;;;15.72
71807;BMP280;59655;42.590;23.364;2022-10-13T14:14:37;91948.84;;;15.68
71807;BMP280;59655;42.590;23.364;2022-10-13T14:17:03;91946.59;;;15.64
71807;BMP280;59655;42.590;23.364;2022-10-13T14:19:30;91944.28;;;15.60
71807;BMP280;59655;42.590;23.364;2022-10-13T14:21:55;91939.34;;;15.57
71807;BMP280;59655;42.590;23.364;2022-10-13T14:24:21;91939.91;;;15.55
71807;BMP280;59655;42.590;23.364;2022-10-13T14:26:46;91938.38;;;15.52
71807;BMP280;59655;42.590;23.364;2022-10-13T14:29:11;91937.47;;;15.50
71807;BMP280;59655;42.590;23.364;2022-10-13T14:31:37;91939.31;;;15.47
71807;BMP280;59655;42.590;23.364;2022-10-13T14:34:03;91940.97;;;15.43
71807;BMP280;59655;42.590;23.364;2022-10-13T14:36:28;91942.25;;;15.41
71807;BMP280;59655;42.590;23.364;2022-10-13T14:38:54;91944.06;;;15.39
71807;BMP280;59655;42.590;23.364;2022-10-13T14:41:19;91945.16;;;15.36
71807;BMP280;59655;42.590;23.364;2022-10-13T14:43:45;91941.09;;;15.35
71807;BMP280;59655;42.590;23.364;2022-10-13T14:46:11;91944.31;;;15.33
71807;BMP280;59655;42.590;23.364;2022-10-13T14:48:37;91942.59;;;15.28
71807;BMP280;59655;42.590;23.364;2022-10-13T14:51:09;91938.34;;;15.25
71807;BMP280;59655;42.590;23.364;2022-10-13T14:53:37;91936.94;;;15.24
71807;BMP280;59655;42.590;23.364;2022-10-13T14:56:32;91930.91;;;15.24
71807;BMP280;59655;42.590;23.364;2022-10-13T14:59:00;91931.44;;;15.22
71807;BMP280;59655;42.590;23.364;2022-10-13T15:01:26;91937.88;;;15.19
71807;BMP280;59655;42.590;23.364;2022-10-13T15:03:51;91927.19;;;15.19
71807;BMP280;59655;42.590;23.364;2022-10-13T15:06:19;91933.25;;;15.19
71807;BMP280;59655;42.590;23.364;2022-10-13T15:08:46;91942.94;;;15.15
71807;BMP280;59655;42.590;23.364;2022-10-13T15:11:12;91943.47;;;15.13
71807;BMP280;59655;42.590;23.364;2022-10-13T15:13:38;91936.75;;;15.12
71807;BMP280;59655;42.590;23.364;2022-10-13T15:16:04;91935.16;;;15.09
71807;BMP280;59655;42.590;23.364;2022-10-13T15:18:30;91938.38;;;15.08
71807;BMP280;59655;42.590;23.364;2022-10-13T15:20:56;91933.63;;;15.06
71807;BMP280;59655;42.590;23.364;2022-10-13T15:23:22;91934.84;;;15.05
71807;BMP280;59655;42.590;23.364;2022-10-13T15:25:55;91940.03;;;15.03
71807;BMP280;59655;42.590;23.364;2022-10-13T15:28:22;91941.88;;;15.01
71807;BMP280;59655;42.590;23.364;2022-10-13T15:30:48;91932.97;;;14.98
71807;BMP280;59655;42.590;23.364;2022-10-13T15:33:14;91933.41;;;14.94
71807;BMP280;59655;42.590;23.364;2022-10-13T15:35:39;91950.91;;;14.88
71807;BMP280;59655;42.590;23.364;2022-10-13T15:38:04;91944.94;;;14.80
71807;BMP280;59655;42.590;23.364;2022-10-13T15:40:30;91944.66;;;14.76
71807;BMP280;59655;42.590;23.364;2022-10-13T15:42:58;91941.97;;;14.76
71807;BMP280;59655;42.590;23.364;2022-10-13T15:45:24;91943.38;;;14.77
71807;BMP280;59655;42.590;23.364;2022-10-13T15:47:50;91945.88;;;14.74
71807;BMP280;59655;42.590;23.364;2022-10-13T15:50:16;91939.13;;;14.73
71807;BMP280;59655;42.590;23.364;2022-10-13T15:52:41;91949.28;;;14.75
71807;BMP280;59655;42.590;23.364;2022-10-13T15:55:08;91944.34;;;14.71
71807;BMP280;59655;42.590;23.364;2022-10-13T15:57:34;91947.63;;;14.62
71807;BMP280;59655;42.590;23.364;2022-10-13T15:59:59;91937.19;;;14.57
71807;BMP280;59655;42.590;23.364;2022-10-13T16:02:25;91953.59;;;14.53
71807;BMP280;59655;42.590;23.364;2022-10-13T16:04:50;91956.56;;;14.57
71807;BMP280;59655;42.590;23.364;2022-10-13T16:07:16;91952.00;;;14.50
71807;BMP280;59655;42.590;23.364;2022-10-13T16:09:43;91952.50;;;14.56